Eden, Vermont
Current Conditions -  °F | °C
As of 4:24 PM on Friday 28 Nov 2014 (Local Time) from KMVL Reporting Station
Light Snow Light Snow  
Wind Chill: -10°   Ceiling: 2400
Heat Index: -6°   Visibility: 3mi
Dew Point: -8°   Wind: 6mph
Humidity: 85%   Direction: 10°N
Pressure: 30.11"   Gusts: NA
Location:  44.71°N, 72.55°W
Report Text: KMVL 282124Z AUTO 01005KT 3SM -SN BR OVC024 M06/M08 A3011 RMK AO2 P0000 T10561078 TSNO
Loading
Personal Weather Stations






























Interactive Weather Map New forecast layout! Learn more

10-Day Weather Forecast

Advertisements
Track Severe Weather on mobile